createdAt,value
2022-11-22T00:00:17.490Z,90.61
2022-11-22T00:02:44.369Z,89.63
2022-11-22T00:05:11.757Z,88.32
2022-11-22T00:07:39.130Z,87.08
2022-11-22T00:10:07.138Z,86.19
2022-11-22T00:12:34.204Z,86.75
2022-11-22T00:15:00.915Z,86.00
2022-11-22T00:17:27.789Z,85.17
2022-11-22T00:19:54.394Z,85.69
2022-11-22T00:22:20.972Z,85.80
2022-11-22T00:24:47.923Z,85.82
2022-11-22T00:27:14.468Z,86.09
2022-11-22T00:29:41.068Z,86.57
2022-11-22T00:32:07.799Z,86.86
2022-11-22T00:34:34.547Z,88.43
2022-11-22T00:37:01.182Z,87.67
2022-11-22T00:39:28.022Z,89.30
2022-11-22T00:41:54.724Z,89.49
2022-11-22T00:44:21.297Z,88.77
2022-11-22T00:46:47.869Z,89.95
2022-11-22T00:49:14.449Z,89.78
2022-11-22T00:51:41.027Z,88.67
2022-11-22T00:54:08.166Z,87.21
2022-11-22T00:56:35.748Z,87.26
2022-11-22T00:59:02.414Z,88.67
2022-11-22T01:01:29.122Z,90.40
2022-11-22T01:03:55.732Z,89.78
2022-11-22T01:06:22.315Z,90.20
2022-11-22T01:08:49.060Z,90.64
2022-11-22T01:11:17.911Z,89.12
2022-11-22T01:13:45.020Z,89.64
2022-11-22T01:16:13.283Z,90.58
2022-11-22T01:18:40.108Z,92.55
2022-11-22T01:21:06.876Z,93.94
2022-11-22T01:23:34.561Z,95.24
2022-11-22T01:26:01.606Z,94.43
2022-11-22T01:28:28.349Z,94.31
2022-11-22T01:30:55.277Z,94.30
2022-11-22T01:33:22.038Z,94.22
2022-11-22T01:35:48.655Z,94.74
2022-11-22T01:38:15.541Z,94.44
2022-11-22T01:40:42.314Z,95.17
2022-11-22T01:43:28.797Z,95.88
2022-11-22T01:46:02.539Z,96.47
2022-11-22T01:48:55.998Z,97.20
2022-11-22T01:51:45.188Z,97.74
2022-11-22T01:54:17.408Z,98.18
2022-11-22T01:56:48.210Z,98.28
2022-11-22T01:59:19.326Z,97.82
2022-11-22T02:01:46.031Z,97.85
2022-11-22T02:04:15.840Z,98.32
2022-11-22T02:06:54.244Z,98.86
2022-11-22T02:09:20.917Z,99.81
2022-11-22T02:11:51.055Z,99.94
2022-11-22T02:14:22.341Z,99.23
2022-11-22T02:16:49.039Z,98.58
2022-11-22T02:19:36.657Z,97.60
2022-11-22T02:22:29.092Z,97.60
2022-11-22T02:25:12.833Z,98.38
2022-11-22T02:27:40.232Z,97.65
2022-11-22T02:30:07.431Z,97.52
2022-11-22T02:32:34.013Z,97.11
2022-11-22T02:35:00.622Z,97.08
2022-11-22T02:37:32.825Z,96.70
2022-11-22T02:40:05.125Z,96.04
2022-11-22T02:42:33.513Z,95.54
2022-11-22T02:45:00.122Z,96.02
2022-11-22T02:47:26.960Z,96.03
2022-11-22T02:49:54.192Z,95.99
2022-11-22T02:52:20.780Z,95.68
2022-11-22T02:54:47.314Z,96.27
2022-11-22T02:57:14.146Z,95.84
2022-11-22T02:59:40.843Z,96.57
2022-11-22T03:02:07.438Z,96.69
2022-11-22T03:04:33.987Z,96.98
2022-11-22T03:07:02.145Z,96.20
2022-11-22T03:09:29.632Z,96.37
2022-11-22T03:11:56.543Z,96.34
2022-11-22T03:14:23.662Z,96.24
2022-11-22T03:16:50.823Z,95.71
2022-11-22T03:19:17.555Z,95.66
2022-11-22T03:21:44.362Z,95.98
2022-11-22T03:24:11.897Z,96.81
2022-11-22T03:26:38.609Z,96.31
2022-11-22T03:29:05.546Z,96.49
2022-11-22T03:31:32.268Z,95.98
2022-11-22T03:33:58.875Z,96.70
2022-11-22T03:36:25.544Z,96.29
2022-11-22T03:38:52.153Z,96.94
2022-11-22T03:41:18.737Z,96.90
2022-11-22T03:43:45.328Z,97.35
2022-11-22T03:46:19.656Z,97.48
2022-11-22T03:48:47.327Z,97.67
2022-11-22T03:51:14.035Z,98.06
2022-11-22T03:53:40.707Z,98.30
2022-11-22T03:56:07.403Z,98.61
2022-11-22T03:58:34.265Z,98.72
2022-11-22T04:01:01.005Z,99.05
2022-11-22T04:03:27.766Z,98.59
2022-11-22T04:05:54.569Z,98.80
2022-11-22T04:08:21.202Z,99.58
2022-11-22T04:10:51.539Z,99.51
2022-11-22T04:13:19.296Z,99.75
2022-11-22T04:15:45.929Z,99.97
2022-11-22T04:18:13.980Z,99.56
2022-11-22T04:20:59.290Z,99.28
2022-11-22T04:23:32.250Z,99.13
2022-11-22T04:26:00.531Z,99.02
2022-11-22T04:28:53.620Z,98.74
2022-11-22T04:31:32.525Z,99.83
2022-11-22T04:33:59.114Z,99.57
2022-11-22T04:36:25.701Z,100.00
2022-11-22T04:38:52.290Z,99.83
2022-11-22T04:41:18.912Z,100.00
2022-11-22T04:44:04.050Z,99.67
2022-11-22T04:46:31.522Z,99.78
2022-11-22T04:48:58.151Z,99.47
2022-11-22T04:51:43.327Z,98.81
2022-11-22T04:54:09.876Z,98.41
2022-11-22T04:56:36.512Z,97.95
2022-11-22T04:59:03.205Z,97.11
2022-11-22T05:01:29.855Z,96.94
2022-11-22T05:03:56.525Z,97.58
2022-11-22T05:06:23.101Z,97.28
2022-11-22T05:08:49.712Z,98.17
2022-11-22T05:11:16.310Z,98.46
2022-11-22T05:13:43.436Z,98.42
2022-11-22T05:16:13.150Z,97.54
2022-11-22T05:18:39.922Z,96.95
2022-11-22T05:21:08.424Z,96.46
2022-11-22T05:23:53.943Z,95.50
2022-11-22T05:26:29.591Z,94.82
2022-11-22T05:28:58.193Z,95.50
2022-11-22T05:31:27.373Z,95.54
2022-11-22T05:33:56.236Z,95.61
2022-11-22T05:36:23.587Z,95.16
2022-11-22T05:38:50.868Z,95.34
2022-11-22T05:41:17.838Z,95.27
2022-11-22T05:43:44.546Z,95.12
2022-11-22T05:46:24.217Z,94.29
2022-11-22T05:48:51.970Z,94.22
2022-11-22T05:51:20.304Z,94.05
2022-11-22T05:53:47.753Z,94.90
2022-11-22T05:56:18.048Z,95.16
2022-11-22T05:58:45.066Z,95.61
2022-11-22T06:01:23.346Z,96.32
2022-11-22T06:03:51.334Z,96.52
2022-11-22T06:06:18.069Z,96.65
2022-11-22T06:08:47.907Z,96.58
2022-11-22T06:11:17.699Z,96.31
2022-11-22T06:13:45.685Z,96.52
2022-11-22T06:16:13.516Z,96.39
2022-11-22T06:18:40.463Z,94.72
2022-11-22T06:21:10.643Z,94.91
2022-11-22T06:23:37.209Z,94.91
2022-11-22T06:26:06.657Z,94.46
2022-11-22T06:28:34.990Z,94.09
2022-11-22T06:31:11.131Z,94.22
2022-11-22T06:33:38.807Z,92.44
2022-11-22T06:36:13.729Z,91.50
2022-11-22T06:38:42.033Z,91.68
2022-11-22T06:41:19.980Z,90.84
2022-11-22T06:43:49.558Z,89.35
2022-11-22T06:46:19.864Z,88.70
2022-11-22T06:48:47.139Z,88.29
2022-11-22T06:51:19.554Z,88.39
2022-11-22T06:53:48.882Z,87.27
2022-11-22T06:56:24.659Z,87.67
2022-11-22T06:58:52.715Z,89.13
2022-11-22T07:01:25.694Z,90.74
2022-11-22T07:03:58.061Z,91.44
2022-11-22T07:06:33.015Z,92.56
2022-11-22T07:09:01.218Z,92.97
2022-11-22T07:11:30.278Z,92.74
2022-11-22T07:14:06.622Z,93.27
2022-11-22T07:16:35.196Z,93.07
2022-11-22T07:19:01.799Z,92.56
2022-11-22T07:21:28.541Z,90.51
2022-11-22T07:23:55.765Z,91.63
2022-11-22T07:26:25.671Z,91.68
2022-11-22T07:28:52.459Z,92.10
2022-11-22T07:31:19.824Z,94.35
2022-11-22T07:33:46.703Z,95.08
2022-11-22T07:36:21.101Z,94.09
2022-11-22T07:38:48.613Z,94.57
2022-11-22T07:41:16.604Z,95.01
2022-11-22T07:43:43.531Z,95.44
2022-11-22T07:46:29.982Z,93.83
2022-11-22T07:48:57.547Z,93.37
2022-11-22T07:51:24.681Z,93.80
2022-11-22T07:53:51.444Z,93.34
2022-11-22T07:56:18.364Z,92.86
2022-11-22T07:58:45.086Z,93.14
2022-11-22T08:01:14.056Z,93.35
2022-11-22T08:03:41.661Z,92.87
2022-11-22T08:06:10.082Z,92.21
2022-11-22T08:08:37.319Z,90.32
2022-11-22T08:11:05.393Z,92.55
2022-11-22T08:13:32.814Z,92.03
2022-11-22T08:16:13.723Z,91.30
2022-11-22T08:18:41.950Z,87.15
2022-11-22T08:21:10.892Z,88.44
2022-11-22T08:23:38.078Z,87.31
2022-11-22T08:26:06.045Z,87.54
2022-11-22T08:28:32.904Z,85.61
2022-11-22T08:31:05.563Z,85.40
2022-11-22T08:33:32.795Z,85.83
2022-11-22T08:35:59.544Z,86.81
2022-11-22T08:38:26.971Z,85.33
2022-11-22T08:40:53.695Z,85.37
2022-11-22T08:43:21.800Z,83.25
2022-11-22T08:45:59.137Z,82.87
2022-11-22T08:48:27.046Z,78.28
2022-11-22T08:50:56.775Z,79.58
2022-11-22T08:53:24.702Z,79.47
2022-11-22T08:55:51.825Z,76.55
2022-11-22T08:58:18.837Z,78.35
2022-11-22T09:00:45.539Z,76.53
2022-11-22T09:03:12.508Z,76.72
2022-11-22T09:08:26.541Z,74.03
2022-11-22T09:10:54.584Z,71.69
2022-11-22T09:13:21.250Z,72.72
2022-11-22T09:15:47.869Z,70.04
2022-11-22T09:18:14.519Z,69.79
2022-11-22T09:20:41.090Z,69.14
2022-11-22T09:23:07.719Z,70.53
2022-11-22T09:25:34.338Z,67.33
2022-11-22T09:28:03.180Z,59.87
2022-11-22T09:30:31.040Z,58.37
2022-11-22T09:32:57.677Z,53.58
2022-11-22T09:35:24.477Z,52.59
2022-11-22T09:37:51.096Z,50.25
2022-11-22T09:40:17.739Z,47.33
2022-11-22T09:42:52.109Z,46.00
2022-11-22T09:45:41.030Z,44.26
2022-11-22T09:48:32.501Z,45.69
2022-11-22T09:51:01.931Z,45.86
2022-11-22T09:53:38.297Z,44.58
2022-11-22T09:56:11.758Z,47.38
2022-11-22T09:58:58.538Z,48.44
2022-11-22T10:01:34.912Z,48.40
2022-11-22T10:04:08.621Z,44.69
2022-11-22T10:06:40.220Z,47.63
2022-11-22T10:09:29.169Z,47.47
2022-11-22T10:12:15.624Z,44.11
2022-11-22T10:14:53.071Z,43.12
2022-11-22T10:17:41.701Z,42.60
2022-11-22T10:20:21.639Z,44.32
2022-11-22T10:22:48.882Z,48.17
2022-11-22T10:25:22.180Z,51.47
2022-11-22T10:28:00.373Z,50.70
2022-11-22T10:30:34.792Z,49.65
2022-11-22T10:33:43.992Z,48.87
2022-11-22T10:36:29.559Z,49.42
2022-11-22T10:39:19.527Z,43.93
2022-11-22T10:41:46.105Z,42.31
2022-11-22T10:44:21.869Z,38.37
2022-11-22T10:47:10.027Z,36.67
2022-11-22T10:49:55.364Z,34.74
2022-11-22T10:52:31.595Z,30.73
2022-11-22T10:54:58.162Z,30.00
2022-11-22T10:57:34.189Z,30.67
2022-11-22T11:00:22.939Z,29.40
2022-11-22T11:03:10.776Z,32.53
2022-11-22T11:06:15.711Z,35.29
2022-11-22T11:09:02.727Z,38.62
2022-11-22T11:11:27.261Z,41.71
2022-11-22T11:13:58.518Z,43.89
2022-11-22T11:16:30.201Z,46.59
2022-11-22T11:19:12.080Z,43.74
2022-11-22T11:21:38.681Z,42.67
2022-11-22T11:24:14.312Z,42.65
2022-11-22T11:26:43.718Z,41.45
2022-11-22T11:29:19.206Z,43.61
2022-11-22T11:31:48.636Z,45.91
2022-11-22T11:34:23.164Z,48.36
2022-11-22T11:36:51.232Z,49.44
2022-11-22T11:39:22.202Z,49.40
2022-11-22T11:41:49.416Z,50.38
2022-11-22T11:44:36.358Z,51.79
2022-11-22T11:47:04.601Z,53.27
2022-11-22T11:49:35.103Z,52.10
2022-11-22T11:52:39.045Z,52.67
2022-11-22T11:55:06.276Z,53.48
2022-11-22T11:57:37.293Z,53.25
2022-11-22T12:00:07.184Z,53.14
2022-11-22T12:02:40.916Z,53.99
2022-11-22T12:05:26.280Z,52.91
2022-11-22T12:07:52.949Z,50.79
2022-11-22T12:10:36.325Z,49.10
2022-11-22T12:13:27.477Z,49.73
2022-11-22T12:16:12.654Z,48.57
2022-11-22T12:18:44.272Z,50.06
2022-11-22T12:21:33.485Z,50.75
2022-11-22T12:27:05.337Z,54.72
2022-11-22T12:29:37.537Z,56.68
2022-11-22T12:32:16.499Z,55.55
2022-11-22T12:34:46.109Z,54.87
2022-11-22T12:37:18.304Z,55.83
2022-11-22T12:39:53.498Z,56.39
2022-11-22T12:42:35.042Z,55.29
2022-11-22T12:45:06.609Z,56.33
2022-11-22T12:47:40.076Z,56.54
2022-11-22T12:50:17.548Z,56.90
2022-11-22T12:53:07.276Z,57.19
2022-11-22T12:55:48.145Z,58.33
2022-11-22T12:58:21.374Z,58.02
2022-11-22T13:01:22.765Z,57.73
2022-11-22T13:04:01.810Z,58.05
2022-11-22T13:06:42.050Z,58.34
2022-11-22T13:09:14.187Z,59.59
2022-11-22T13:11:45.598Z,58.88
2022-11-22T13:14:25.608Z,59.50
2022-11-22T13:16:53.927Z,59.53
2022-11-22T13:19:24.222Z,60.48
2022-11-22T13:22:16.762Z,60.34
2022-11-22T13:25:13.276Z,60.26
2022-11-22T13:27:44.945Z,60.28
2022-11-22T13:30:39.663Z,61.33
2022-11-22T13:33:22.779Z,61.95
2022-11-22T13:35:49.408Z,62.70
2022-11-22T13:38:18.195Z,62.25
2022-11-22T13:40:52.801Z,63.62
2022-11-22T13:43:22.479Z,63.16
2022-11-22T13:45:53.389Z,64.84
2022-11-22T13:48:41.897Z,65.14
2022-11-22T13:51:09.601Z,64.94
2022-11-22T13:53:44.083Z,65.12
2022-11-22T13:56:16.855Z,65.36
2022-11-22T13:58:50.732Z,65.38
2022-11-22T14:01:34.542Z,64.61
2022-11-22T14:04:16.408Z,65.75
2022-11-22T14:06:53.333Z,64.87
2022-11-22T14:09:38.460Z,65.08
2022-11-22T14:12:04.975Z,65.08
2022-11-22T14:14:34.275Z,65.45
2022-11-22T14:17:41.791Z,65.32
2022-11-22T14:20:43.470Z,65.59
2022-11-22T14:23:19.265Z,64.94
2022-11-22T14:26:01.095Z,65.42
2022-11-22T14:28:39.839Z,65.81
2022-11-22T14:31:20.527Z,65.64
2022-11-22T14:34:29.747Z,67.52
2022-11-22T14:37:34.876Z,66.75
2022-11-22T14:40:30.481Z,67.68
2022-11-22T14:42:59.709Z,68.01
2022-11-22T14:45:38.295Z,67.49
2022-11-22T14:48:19.738Z,67.72
2022-11-22T14:50:55.050Z,68.66
2022-11-22T14:53:34.475Z,69.16
2022-11-22T14:56:06.046Z,69.79
2022-11-22T14:58:38.576Z,69.83
2022-11-22T15:01:14.980Z,70.22
2022-11-22T15:09:14.161Z,70.59
2022-11-22T15:09:16.586Z,70.57
2022-11-22T15:10:23.340Z,70.23
2022-11-22T15:13:17.581Z,69.89
2022-11-22T15:59:43.241Z,67.33
2022-11-22T16:02:18.214Z,67.39
2022-11-22T16:06:09.440Z,67.33
2022-11-22T16:07:48.330Z,67.69
2022-11-22T16:10:39.843Z,67.69
2022-11-22T16:13:32.571Z,67.59
2022-11-22T16:16:13.804Z,67.70
2022-11-22T16:18:41.227Z,67.73
2022-11-22T16:21:11.432Z,68.26
2022-11-22T16:23:42.189Z,68.24
2022-11-22T16:26:18.066Z,68.53
2022-11-22T16:28:46.217Z,68.14
2022-11-22T16:31:27.761Z,67.88
2022-11-22T16:33:55.435Z,67.64
2022-11-22T16:36:24.145Z,68.12
2022-11-22T16:38:51.330Z,68.86
2022-11-22T16:41:23.790Z,69.58
2022-11-22T16:43:54.454Z,70.24
2022-11-22T16:46:21.532Z,70.26
2022-11-22T16:48:48.704Z,70.60
2022-11-22T16:51:22.911Z,71.00
2022-11-22T16:53:51.257Z,70.88
2022-11-22T16:56:19.552Z,71.28
2022-11-22T16:58:47.647Z,71.47
2022-11-22T17:01:16.385Z,71.46
2022-11-22T17:03:45.088Z,70.90
2022-11-22T17:06:26.863Z,71.70
2022-11-22T17:08:55.639Z,71.55
2022-11-22T17:11:27.630Z,71.87
2022-11-22T17:13:54.516Z,71.19
2022-11-22T17:16:21.233Z,71.88
2022-11-22T17:18:48.410Z,71.69
2022-11-22T17:21:37.951Z,70.63
2022-11-22T17:24:07.433Z,70.88
2022-11-22T17:26:34.851Z,71.15
2022-11-22T17:29:01.866Z,71.61
2022-11-22T17:31:29.155Z,71.62
2022-11-22T17:33:58.209Z,71.33
2022-11-22T17:36:31.832Z,72.02
2022-11-22T17:38:59.993Z,72.36
2022-11-22T17:41:27.200Z,72.71
2022-11-22T17:43:54.006Z,72.71
2022-11-22T17:46:20.741Z,73.31
2022-11-22T17:49:02.019Z,73.37
2022-11-22T17:51:29.346Z,73.63
2022-11-22T17:53:58.249Z,73.66
2022-11-22T17:56:29.905Z,73.73
2022-11-22T17:58:56.546Z,74.04
2022-11-22T18:01:23.827Z,75.03
2022-11-22T18:03:50.676Z,74.61
2022-11-22T18:06:18.949Z,74.20
2022-11-22T18:08:47.391Z,74.93
2022-11-22T18:11:15.011Z,75.10
2022-11-22T18:13:42.165Z,74.95
2022-11-22T18:16:13.723Z,74.14
2022-11-22T18:18:57.430Z,74.76
2022-11-22T18:21:24.896Z,74.64
2022-11-22T18:23:51.659Z,74.89
2022-11-22T18:31:52.844Z,74.16
2022-11-22T18:34:20.614Z,74.51
2022-11-22T18:37:04.205Z,74.76
2022-11-22T18:39:34.802Z,74.52
2022-11-22T18:42:02.172Z,73.97
2022-11-22T18:44:28.823Z,74.56
2022-11-22T18:46:55.573Z,74.39
2022-11-22T18:49:22.284Z,74.84
2022-11-22T18:51:48.904Z,74.86
2022-11-22T18:54:16.101Z,74.94
2022-11-22T18:56:42.669Z,74.90
2022-11-22T18:59:12.721Z,74.76
2022-11-22T19:01:40.716Z,74.98
2022-11-22T19:04:07.504Z,75.39
2022-11-22T19:06:34.153Z,75.26
2022-11-22T19:09:01.249Z,75.77
2022-11-22T19:11:30.027Z,75.78
2022-11-22T19:13:57.003Z,75.39
2022-11-22T19:16:23.909Z,75.90
2022-11-22T19:18:50.615Z,76.11
2022-11-22T19:21:22.873Z,75.74
2022-11-22T19:23:50.320Z,75.94
2022-11-22T19:26:20.582Z,76.45
2022-11-22T19:28:48.660Z,75.93
2022-11-22T19:31:18.022Z,76.25
2022-11-22T19:33:45.699Z,76.24
2022-11-22T19:36:17.938Z,76.81
2022-11-22T19:38:45.545Z,76.23
2022-11-22T19:41:17.153Z,76.52
2022-11-22T19:43:44.637Z,76.92
2022-11-22T19:46:11.766Z,77.29
2022-11-22T19:48:43.781Z,77.48
2022-11-22T19:51:15.479Z,77.55
2022-11-22T19:53:42.273Z,78.13
2022-11-22T19:56:14.617Z,78.26
2022-11-22T19:58:42.284Z,78.55
2022-11-22T20:01:11.025Z,78.88
2022-11-22T20:03:41.200Z,78.77
2022-11-22T20:06:10.049Z,78.85
2022-11-22T20:08:37.423Z,79.27
2022-11-22T20:11:10.045Z,79.13
2022-11-22T20:13:39.849Z,79.51
2022-11-22T20:16:13.784Z,79.49
2022-11-22T20:18:40.380Z,79.64
2022-11-22T20:21:09.298Z,79.49
2022-11-22T20:23:36.560Z,79.75
2022-11-22T20:26:05.268Z,80.10
2022-11-22T20:28:31.981Z,80.39
2022-11-22T20:31:10.325Z,80.38
2022-11-22T20:33:39.692Z,80.64
2022-11-22T20:36:08.884Z,80.71
2022-11-22T20:38:44.821Z,80.84
2022-11-22T20:41:13.092Z,80.54
2022-11-22T20:43:40.238Z,80.77
2022-11-22T20:46:12.481Z,80.88
2022-11-22T20:48:40.432Z,80.83
2022-11-22T20:51:10.193Z,80.94
2022-11-22T20:53:37.602Z,80.78
2022-11-22T20:56:04.849Z,80.67
2022-11-22T20:58:32.485Z,80.62
2022-11-22T21:00:59.457Z,80.72
2022-11-22T21:03:27.383Z,81.17
2022-11-22T21:05:55.347Z,81.40
2022-11-22T21:08:23.121Z,81.66
2022-11-22T21:10:50.024Z,81.63
2022-11-22T21:13:16.668Z,81.85
2022-11-22T21:15:43.668Z,82.06
2022-11-22T21:18:25.026Z,81.89
2022-11-22T21:20:52.044Z,82.28
2022-11-22T21:23:18.621Z,82.12
2022-11-22T21:25:46.294Z,82.19
2022-11-22T21:28:12.916Z,82.16
2022-11-22T21:30:39.799Z,82.64
2022-11-22T21:33:06.427Z,82.20
2022-11-22T21:35:33.028Z,81.99
2022-11-22T21:37:59.581Z,82.10
2022-11-22T21:40:26.203Z,83.52
2022-11-22T21:42:52.777Z,84.23
2022-11-22T21:45:19.332Z,84.04
2022-11-22T21:47:48.317Z,83.93
2022-11-22T21:50:15.443Z,84.00
2022-11-22T21:52:42.536Z,84.16
2022-11-22T21:55:09.853Z,84.40
2022-11-22T21:57:36.522Z,84.00
2022-11-22T22:00:04.890Z,84.44
2022-11-22T22:02:32.802Z,84.40
2022-11-22T22:04:59.477Z,84.19
2022-11-22T22:07:51.935Z,84.49
2022-11-22T22:10:13.271Z,84.65
2022-11-22T22:12:40.939Z,84.79
2022-11-22T22:15:11.244Z,84.35
2022-11-22T22:17:37.868Z,84.29
2022-11-22T22:20:05.354Z,84.32
2022-11-22T22:22:35.328Z,84.67
2022-11-22T22:25:01.920Z,84.78
2022-11-22T22:27:31.450Z,84.79
2022-11-22T22:29:58.589Z,84.79
2022-11-22T22:32:25.795Z,85.08
2022-11-22T22:34:52.945Z,85.13
2022-11-22T22:37:19.946Z,85.78
2022-11-22T22:39:46.680Z,85.78
2022-11-22T22:42:14.136Z,85.86
2022-11-22T22:44:40.719Z,86.09
2022-11-22T22:47:07.290Z,86.42
2022-11-22T22:49:34.011Z,86.35
2022-11-22T22:52:00.658Z,86.62
2022-11-22T22:54:27.256Z,86.57
2022-11-22T22:56:53.808Z,86.86
2022-11-22T22:59:20.418Z,87.10
2022-11-22T23:01:47.024Z,87.13
2022-11-22T23:04:13.657Z,87.46
2022-11-22T23:06:40.381Z,87.31
2022-11-22T23:09:10.074Z,87.48
2022-11-22T23:11:55.744Z,87.91
2022-11-22T23:14:25.350Z,87.63
2022-11-22T23:16:57.040Z,87.69
2022-11-22T23:19:24.977Z,87.99
2022-11-22T23:21:51.768Z,87.67
2022-11-22T23:24:18.423Z,88.15
2022-11-22T23:26:45.342Z,87.87
2022-11-22T23:29:12.308Z,88.10
2022-11-22T23:31:38.898Z,88.14
2022-11-22T23:34:05.617Z,88.48
2022-11-22T23:36:36.062Z,88.75
2022-11-22T23:39:05.781Z,88.36
2022-11-22T23:41:32.352Z,88.45
2022-11-22T23:43:58.923Z,88.53
2022-11-22T23:46:27.969Z,88.59
2022-11-22T23:48:57.342Z,88.88
2022-11-22T23:51:25.154Z,88.97
2022-11-22T23:54:00.175Z,88.99
2022-11-22T23:56:28.176Z,88.90
2022-11-22T23:58:54.886Z,89.29
